createdAt,value
2018-11-22T00:10:26.133Z,5.54
2018-11-22T00:21:27.002Z,5.49
2018-11-22T00:32:29.847Z,5.44
2018-11-22T00:43:32.947Z,5.47
2018-11-22T00:54:34.596Z,5.62
2018-11-22T01:05:37.951Z,5.54
2018-11-22T01:16:24.213Z,5.52
2018-11-22T01:27:27.231Z,5.41
2018-11-22T01:38:28.401Z,5.39
2018-11-22T01:49:31.839Z,5.36
2018-11-22T02:00:32.906Z,5.42
2018-11-22T02:11:34.650Z,5.49
2018-11-22T02:22:36.681Z,5.47
2018-11-22T02:33:38.967Z,5.39
2018-11-22T02:44:40.311Z,5.50
2018-11-22T02:55:42.873Z,5.52
2018-11-22T03:06:47.256Z,5.47
2018-11-22T03:17:48.438Z,5.45
2018-11-22T03:28:51.183Z,5.49
2018-11-22T03:39:53.287Z,5.53
2018-11-22T03:50:55.487Z,5.49
2018-11-22T04:01:57.790Z,5.49
2018-11-22T04:13:00.439Z,5.45
2018-11-22T04:24:04.064Z,5.42
2018-11-22T04:35:06.969Z,5.28
2018-11-22T04:46:08.609Z,5.31
2018-11-22T04:57:12.707Z,5.45
2018-11-22T05:08:13.794Z,5.31
2018-11-22T05:19:13.724Z,5.39
2018-11-22T05:30:17.724Z,5.39
2018-11-22T05:41:20.382Z,5.31
2018-11-22T05:52:16.099Z,5.29
2018-11-22T06:03:14.487Z,5.26
2018-11-22T06:13:58.065Z,5.44
2018-11-22T06:25:03.638Z,5.54
2018-11-22T06:36:03.942Z,5.54
2018-11-22T06:47:05.751Z,5.49
2018-11-22T06:58:09.549Z,5.60
2018-11-22T07:09:09.470Z,5.71
2018-11-22T07:20:11.347Z,5.67
2018-11-22T07:31:12.960Z,5.70
2018-11-22T07:42:13.270Z,5.71
2018-11-22T07:53:05.338Z,5.93
2018-11-22T08:04:08.281Z,5.86
2018-11-22T08:15:12.055Z,5.97
2018-11-22T08:26:13.214Z,5.80
2018-11-22T08:37:11.361Z,5.95
2018-11-22T08:48:12.398Z,5.97
2018-11-22T08:58:51.036Z,6.06
2018-11-22T09:09:49.206Z,6.13
2018-11-22T09:20:48.247Z,6.11
2018-11-22T09:31:51.556Z,6.14
2018-11-22T09:42:52.121Z,6.14
2018-11-22T09:53:30.079Z,6.27
2018-11-22T10:04:31.768Z,6.15
2018-11-22T10:15:28.072Z,6.17
2018-11-22T10:26:31.841Z,6.37
2018-11-22T10:37:35.079Z,6.55
2018-11-22T10:48:35.480Z,6.48
2018-11-22T10:59:17.169Z,6.45
2018-11-22T11:10:08.653Z,6.60
2018-11-22T11:21:10.676Z,6.57
2018-11-22T11:32:14.919Z,6.69
2018-11-22T11:43:17.413Z,6.70
2018-11-22T11:54:19.510Z,6.51
2018-11-22T12:05:17.358Z,6.45
2018-11-22T12:16:16.969Z,6.44
2018-11-22T12:27:20.652Z,6.45
2018-11-22T12:38:18.583Z,6.59
2018-11-22T12:49:21.740Z,6.44
2018-11-22T13:00:17.528Z,6.54
2018-11-22T13:11:17.464Z,6.41
2018-11-22T13:22:18.094Z,6.57
2018-11-22T13:33:17.666Z,6.65
2018-11-22T13:44:20.964Z,6.47
2018-11-22T13:55:24.048Z,6.41
2018-11-22T14:06:27.309Z,6.41
2018-11-22T14:17:30.498Z,6.45
2018-11-22T14:28:21.926Z,6.42
2018-11-22T14:39:00.703Z,6.39
2018-11-22T14:49:43.104Z,6.34
2018-11-22T15:00:39.437Z,6.29
2018-11-22T15:11:33.181Z,6.27
2018-11-22T15:22:36.807Z,6.29
2018-11-22T15:33:38.599Z,6.26
2018-11-22T15:44:40.688Z,6.15
2018-11-22T15:55:44.344Z,6.21
2018-11-22T16:06:48.255Z,6.17
2018-11-22T16:17:47.642Z,6.17
2018-11-22T16:28:47.300Z,6.21
2018-11-22T16:39:54.270Z,6.26
2018-11-22T16:50:56.882Z,6.32
2018-11-22T17:02:00.204Z,6.26
2018-11-22T17:13:03.813Z,6.17
2018-11-22T17:24:07.242Z,6.26
2018-11-22T17:35:10.347Z,6.34
2018-11-22T17:46:15.002Z,6.33
2018-11-22T17:57:18.043Z,6.27
2018-11-22T18:08:22.040Z,6.32
2018-11-22T18:19:25.985Z,6.34
2018-11-22T18:30:25.027Z,6.34
2018-11-22T18:41:27.618Z,6.39
2018-11-22T18:52:30.445Z,6.50
2018-11-22T19:03:34.716Z,6.45
2018-11-22T19:14:39.508Z,6.52
2018-11-22T19:25:44.098Z,6.55
2018-11-22T19:36:46.649Z,6.48
2018-11-22T19:47:42.661Z,6.50
2018-11-22T19:58:45.330Z,6.48
2018-11-22T20:09:47.192Z,6.47
2018-11-22T20:20:49.570Z,6.47
2018-11-22T20:31:52.502Z,6.42
2018-11-22T20:42:53.175Z,6.37
2018-11-22T20:53:55.965Z,6.34
2018-11-22T21:04:58.943Z,6.39
2018-11-22T21:15:57.155Z,6.34
2018-11-22T21:27:00.655Z,6.24
2018-11-22T21:38:01.370Z,6.29
2018-11-22T21:49:02.239Z,6.36
2018-11-22T22:00:07.186Z,6.26
2018-11-22T22:11:11.481Z,6.34
2018-11-22T22:22:15.765Z,6.36
2018-11-22T22:33:19.420Z,6.39
2018-11-22T22:44:23.082Z,6.37
2018-11-22T22:55:26.864Z,6.44
2018-11-22T23:06:31.541Z,6.42
2018-11-22T23:17:36.053Z,6.45
2018-11-22T23:28:40.050Z,6.39
2018-11-22T23:39:45.433Z,6.42
2018-11-22T23:50:50.433Z,6.33
